sensor_id;sensor_type;location;lat;lon;timestamp;P1;durP1;ratioP1;P2;durP2;ratioP2
58306;SDS011;44116;50.884;4.768;2024-01-15T00:01:54;37.4;;;18.7;;
58306;SDS011;44116;50.884;4.768;2024-01-15T00:03:54;37.6;;;18.2;;
58306;SDS011;44116;50.884;4.768;2024-01-15T00:05:53;38.5;;;18.6;;
58306;SDS011;44116;50.884;4.768;2024-01-15T00:07:53;39.6;;;18.5;;
58306;SDS011;44116;50.884;4.768;2024-01-15T00:09:52;35.9;;;17.8;;
58306;SDS011;44116;50.884;4.768;2024-01-15T00:11:52;34.1;;;17.3;;
58306;SDS011;44116;50.884;4.768;2024-01-15T00:13:51;36.7;;;17.4;;
58306;SDS011;44116;50.884;4.768;2024-01-15T00:15:51;36.9;;;17.7;;
58306;SDS011;44116;50.884;4.768;2024-01-15T00:17:50;35.9;;;17.8;;
58306;SDS011;44116;50.884;4.768;2024-01-15T00:19:50;38.2;;;18.3;;
58306;SDS011;44116;50.884;4.768;2024-01-15T00:21:50;35.6;;;18.0;;
58306;SDS011;44116;50.884;4.768;2024-01-15T00:23:49;34.5;;;16.8;;
58306;SDS011;44116;50.884;4.768;2024-01-15T00:25:50;35.5;;;17.8;;
58306;SDS011;44116;50.884;4.768;2024-01-15T00:27:48;38.9;;;17.4;;
58306;SDS011;44116;50.884;4.768;2024-01-15T00:29:47;34.8;;;16.9;;
58306;SDS011;44116;50.884;4.768;2024-01-15T00:31:47;35.9;;;16.6;;
58306;SDS011;44116;50.884;4.768;2024-01-15T00:33:46;33.2;;;15.7;;
58306;SDS011;44116;50.884;4.768;2024-01-15T00:35:46;34.4;;;16.5;;
58306;SDS011;44116;50.884;4.768;2024-01-15T00:37:45;31.1;;;15.1;;
58306;SDS011;44116;50.884;4.768;2024-01-15T00:39:45;34.0;;;15.5;;
58306;SDS011;44116;50.884;4.768;2024-01-15T00:41:44;33.9;;;14.9;;
58306;SDS011;44116;50.884;4.768;2024-01-15T00:45:43;32.2;;;16.2;;
58306;SDS011;44116;50.884;4.768;2024-01-15T00:47:43;30.7;;;15.5;;
58306;SDS011;44116;50.884;4.768;2024-01-15T00:49:42;30.5;;;15.0;;
58306;SDS011;44116;50.884;4.768;2024-01-15T00:51:42;31.4;;;15.3;;
58306;SDS011;44116;50.884;4.768;2024-01-15T00:53:41;30.2;;;15.2;;
58306;SDS011;44116;50.884;4.768;2024-01-15T00:55:41;30.8;;;15.1;;
58306;SDS011;44116;50.884;4.768;2024-01-15T00:57:40;31.4;;;14.8;;
58306;SDS011;44116;50.884;4.768;2024-01-15T00:59:40;29.7;;;15.0;;
58306;SDS011;44116;50.884;4.768;2024-01-15T01:01:40;30.7;;;14.9;;
58306;SDS011;44116;50.884;4.768;2024-01-15T01:03:39;29.9;;;13.5;;
58306;SDS011;44116;50.884;4.768;2024-01-15T01:05:38;29.3;;;14.2;;
58306;SDS011;44116;50.884;4.768;2024-01-15T01:07:38;28.2;;;13.5;;
58306;SDS011;44116;50.884;4.768;2024-01-15T01:09:37;28.4;;;13.4;;
58306;SDS011;44116;50.884;4.768;2024-01-15T01:11:37;29.0;;;14.1;;
58306;SDS011;44116;50.884;4.768;2024-01-15T01:13:37;26.3;;;14.2;;
58306;SDS011;44116;50.884;4.768;2024-01-15T01:15:36;28.2;;;13.8;;
58306;SDS011;44116;50.884;4.768;2024-01-15T01:17:36;24.3;;;12.7;;
58306;SDS011;44116;50.884;4.768;2024-01-15T01:19:35;25.5;;;13.3;;
58306;SDS011;44116;50.884;4.768;2024-01-15T01:21:35;24.0;;;12.9;;
58306;SDS011;44116;50.884;4.768;2024-01-15T01:23:34;26.8;;;12.6;;
58306;SDS011;44116;50.884;4.768;2024-01-15T01:25:34;26.3;;;14.0;;
58306;SDS011;44116;50.884;4.768;2024-01-15T01:27:34;28.4;;;12.9;;
58306;SDS011;44116;50.884;4.768;2024-01-15T01:29:33;23.0;;;12.5;;
58306;SDS011;44116;50.884;4.768;2024-01-15T01:31:32;25.8;;;13.6;;
58306;SDS011;44116;50.884;4.768;2024-01-15T01:33:32;23.9;;;12.1;;
58306;SDS011;44116;50.884;4.768;2024-01-15T01:35:31;23.6;;;12.9;;
58306;SDS011;44116;50.884;4.768;2024-01-15T01:37:31;26.1;;;13.0;;
58306;SDS011;44116;50.884;4.768;2024-01-15T01:39:30;21.8;;;11.8;;
58306;SDS011;44116;50.884;4.768;2024-01-15T01:43:29;23.4;;;11.9;;
58306;SDS011;44116;50.884;4.768;2024-01-15T01:45:29;22.4;;;11.6;;
58306;SDS011;44116;50.884;4.768;2024-01-15T01:47:29;21.0;;;11.2;;
58306;SDS011;44116;50.884;4.768;2024-01-15T01:49:28;22.3;;;11.4;;
58306;SDS011;44116;50.884;4.768;2024-01-15T01:51:28;21.7;;;10.8;;
58306;SDS011;44116;50.884;4.768;2024-01-15T01:53:28;18.1;;;10.2;;
58306;SDS011;44116;50.884;4.768;2024-01-15T01:57:26;20.5;;;10.1;;
58306;SDS011;44116;50.884;4.768;2024-01-15T01:59:27;19.6;;;10.5;;
58306;SDS011;44116;50.884;4.768;2024-01-15T02:01:25;18.9;;;9.9;;
58306;SDS011;44116;50.884;4.768;2024-01-15T02:03:26;17.9;;;9.6;;
58306;SDS011;44116;50.884;4.768;2024-01-15T02:05:43;18.1;;;8.9;;
58306;SDS011;44116;50.884;4.768;2024-01-15T02:07:24;19.8;;;9.6;;
58306;SDS011;44116;50.884;4.768;2024-01-15T02:09:23;21.1;;;10.3;;
58306;SDS011;44116;50.884;4.768;2024-01-15T02:11:23;16.6;;;9.5;;
58306;SDS011;44116;50.884;4.768;2024-01-15T02:13:23;19.0;;;9.8;;
58306;SDS011;44116;50.884;4.768;2024-01-15T02:17:22;17.7;;;9.6;;
58306;SDS011;44116;50.884;4.768;2024-01-15T02:19:21;17.2;;;8.8;;
58306;SDS011;44116;50.884;4.768;2024-01-15T02:21:21;16.7;;;9.4;;
58306;SDS011;44116;50.884;4.768;2024-01-15T02:23:20;16.5;;;9.0;;
58306;SDS011;44116;50.884;4.768;2024-01-15T02:25:20;17.1;;;8.7;;
58306;SDS011;44116;50.884;4.768;2024-01-15T02:27:20;18.0;;;9.0;;
58306;SDS011;44116;50.884;4.768;2024-01-15T02:29:19;16.8;;;8.8;;
58306;SDS011;44116;50.884;4.768;2024-01-15T02:31:18;16.2;;;8.4;;
58306;SDS011;44116;50.884;4.768;2024-01-15T02:33:18;16.2;;;8.5;;
58306;SDS011;44116;50.884;4.768;2024-01-15T02:35:17;13.8;;;8.2;;
58306;SDS011;44116;50.884;4.768;2024-01-15T02:37:17;15.9;;;8.6;;
58306;SDS011;44116;50.884;4.768;2024-01-15T02:39:16;17.1;;;8.7;;
58306;SDS011;44116;50.884;4.768;2024-01-15T02:43:15;15.5;;;8.4;;
58306;SDS011;44116;50.884;4.768;2024-01-15T02:45:15;13.8;;;7.7;;
58306;SDS011;44116;50.884;4.768;2024-01-15T02:47:14;11.8;;;7.4;;
58306;SDS011;44116;50.884;4.768;2024-01-15T02:51:14;12.8;;;7.2;;
58306;SDS011;44116;50.884;4.768;2024-01-15T02:53:13;13.7;;;7.7;;
58306;SDS011;44116;50.884;4.768;2024-01-15T02:55:13;13.4;;;7.2;;
58306;SDS011;44116;50.884;4.768;2024-01-15T02:57:12;13.1;;;8.2;;
58306;SDS011;44116;50.884;4.768;2024-01-15T02:59:12;12.6;;;7.4;;
58306;SDS011;44116;50.884;4.768;2024-01-15T03:01:11;16.6;;;7.9;;
58306;SDS011;44116;50.884;4.768;2024-01-15T03:03:11;12.8;;;7.2;;
58306;SDS011;44116;50.884;4.768;2024-01-15T03:05:10;11.8;;;7.1;;
58306;SDS011;44116;50.884;4.768;2024-01-15T03:07:10;11.1;;;6.3;;
58306;SDS011;44116;50.884;4.768;2024-01-15T03:09:09;11.8;;;6.8;;
58306;SDS011;44116;50.884;4.768;2024-01-15T03:11:09;11.0;;;6.4;;
58306;SDS011;44116;50.884;4.768;2024-01-15T03:13:08;14.7;;;6.6;;
58306;SDS011;44116;50.884;4.768;2024-01-15T03:15:08;17.6;;;7.7;;
58306;SDS011;44116;50.884;4.768;2024-01-15T03:17:07;11.3;;;6.8;;
58306;SDS011;44116;50.884;4.768;2024-01-15T03:21:06;12.1;;;6.7;;
58306;SDS011;44116;50.884;4.768;2024-01-15T03:23:06;13.3;;;6.3;;
58306;SDS011;44116;50.884;4.768;2024-01-15T03:25:06;14.1;;;6.6;;
58306;SDS011;44116;50.884;4.768;2024-01-15T03:27:05;12.6;;;6.7;;
58306;SDS011;44116;50.884;4.768;2024-01-15T03:29:05;10.3;;;6.3;;
58306;SDS011;44116;50.884;4.768;2024-01-15T03:31:04;12.5;;;6.2;;
58306;SDS011;44116;50.884;4.768;2024-01-15T03:33:04;13.5;;;6.7;;
58306;SDS011;44116;50.884;4.768;2024-01-15T03:35:04;11.0;;;6.5;;
58306;SDS011;44116;50.884;4.768;2024-01-15T03:37:03;11.5;;;6.3;;
58306;SDS011;44116;50.884;4.768;2024-01-15T03:39:02;12.9;;;6.6;;
58306;SDS011;44116;50.884;4.768;2024-01-15T03:41:01;12.9;;;7.0;;
58306;SDS011;44116;50.884;4.768;2024-01-15T03:43:01;11.5;;;6.6;;
58306;SDS011;44116;50.884;4.768;2024-01-15T03:45:00;12.5;;;7.3;;
58306;SDS011;44116;50.884;4.768;2024-01-15T03:47:00;13.5;;;6.8;;
58306;SDS011;44116;50.884;4.768;2024-01-15T03:50:59;10.0;;;6.2;;
58306;SDS011;44116;50.884;4.768;2024-01-15T03:52:59;13.8;;;7.1;;
58306;SDS011;44116;50.884;4.768;2024-01-15T03:54:58;12.3;;;6.9;;
58306;SDS011;44116;50.884;4.768;2024-01-15T03:56:58;11.4;;;7.2;;
58306;SDS011;44116;50.884;4.768;2024-01-15T03:58:57;11.9;;;6.8;;
58306;SDS011;44116;50.884;4.768;2024-01-15T04:00:57;14.6;;;7.7;;
58306;SDS011;44116;50.884;4.768;2024-01-15T04:02:56;13.2;;;7.5;;
58306;SDS011;44116;50.884;4.768;2024-01-15T04:04:56;12.8;;;7.8;;
58306;SDS011;44116;50.884;4.768;2024-01-15T04:06:55;16.3;;;8.5;;
58306;SDS011;44116;50.884;4.768;2024-01-15T04:08:55;15.9;;;8.6;;
58306;SDS011;44116;50.884;4.768;2024-01-15T04:10:54;14.2;;;8.1;;
58306;SDS011;44116;50.884;4.768;2024-01-15T04:12:54;14.6;;;8.7;;
58306;SDS011;44116;50.884;4.768;2024-01-15T04:14:53;15.1;;;8.4;;
58306;SDS011;44116;50.884;4.768;2024-01-15T04:16:53;17.5;;;9.0;;
58306;SDS011;44116;50.884;4.768;2024-01-15T04:18:52;18.1;;;9.8;;
58306;SDS011;44116;50.884;4.768;2024-01-15T04:20:52;17.0;;;10.0;;
58306;SDS011;44116;50.884;4.768;2024-01-15T04:22:52;20.3;;;10.9;;
58306;SDS011;44116;50.884;4.768;2024-01-15T04:24:51;20.4;;;11.0;;
58306;SDS011;44116;50.884;4.768;2024-01-15T04:26:50;22.5;;;11.2;;
58306;SDS011;44116;50.884;4.768;2024-01-15T04:28:50;23.0;;;11.4;;
58306;SDS011;44116;50.884;4.768;2024-01-15T04:30:49;20.9;;;11.7;;
58306;SDS011;44116;50.884;4.768;2024-01-15T04:32:49;23.3;;;12.7;;
58306;SDS011;44116;50.884;4.768;2024-01-15T04:34:48;21.6;;;12.4;;
58306;SDS011;44116;50.884;4.768;2024-01-15T04:36:48;24.9;;;12.8;;
58306;SDS011;44116;50.884;4.768;2024-01-15T04:38:48;24.0;;;13.3;;
58306;SDS011;44116;50.884;4.768;2024-01-15T04:40:47;24.3;;;12.9;;
58306;SDS011;44116;50.884;4.768;2024-01-15T04:42:47;22.9;;;12.8;;
58306;SDS011;44116;50.884;4.768;2024-01-15T04:44:46;25.0;;;13.6;;
58306;SDS011;44116;50.884;4.768;2024-01-15T04:46:46;25.9;;;13.7;;
58306;SDS011;44116;50.884;4.768;2024-01-15T04:50:45;27.6;;;14.6;;
58306;SDS011;44116;50.884;4.768;2024-01-15T04:52:44;26.8;;;13.8;;
58306;SDS011;44116;50.884;4.768;2024-01-15T04:54:43;26.4;;;13.7;;
58306;SDS011;44116;50.884;4.768;2024-01-15T04:56:43;26.2;;;13.8;;
58306;SDS011;44116;50.884;4.768;2024-01-15T04:58:43;25.4;;;14.7;;
58306;SDS011;44116;50.884;4.768;2024-01-15T05:00:42;23.6;;;13.5;;
58306;SDS011;44116;50.884;4.768;2024-01-15T05:02:42;25.8;;;14.0;;
58306;SDS011;44116;50.884;4.768;2024-01-15T05:04:41;25.3;;;13.9;;
58306;SDS011;44116;50.884;4.768;2024-01-15T05:06:40;26.6;;;14.7;;
58306;SDS011;44116;50.884;4.768;2024-01-15T05:10:40;28.1;;;14.0;;
58306;SDS011;44116;50.884;4.768;2024-01-15T05:12:39;27.8;;;15.2;;
58306;SDS011;44116;50.884;4.768;2024-01-15T05:14:39;27.6;;;14.5;;
58306;SDS011;44116;50.884;4.768;2024-01-15T05:16:38;31.2;;;15.8;;
58306;SDS011;44116;50.884;4.768;2024-01-15T05:18:38;28.4;;;14.7;;
58306;SDS011;44116;50.884;4.768;2024-01-15T05:20:37;28.5;;;15.6;;
58306;SDS011;44116;50.884;4.768;2024-01-15T05:22:36;28.2;;;14.2;;
58306;SDS011;44116;50.884;4.768;2024-01-15T05:24:36;26.8;;;14.4;;
58306;SDS011;44116;50.884;4.768;2024-01-15T05:26:35;27.0;;;14.1;;
58306;SDS011;44116;50.884;4.768;2024-01-15T05:30:35;23.4;;;13.2;;
58306;SDS011;44116;50.884;4.768;2024-01-15T05:32:34;24.2;;;13.8;;
58306;SDS011;44116;50.884;4.768;2024-01-15T05:34:34;24.9;;;13.0;;
58306;SDS011;44116;50.884;4.768;2024-01-15T05:36:33;22.5;;;12.1;;
58306;SDS011;44116;50.884;4.768;2024-01-15T05:38:33;25.9;;;12.8;;
58306;SDS011;44116;50.884;4.768;2024-01-15T05:40:32;22.4;;;11.6;;
58306;SDS011;44116;50.884;4.768;2024-01-15T05:42:31;22.2;;;11.3;;
58306;SDS011;44116;50.884;4.768;2024-01-15T05:44:31;21.7;;;11.4;;
58306;SDS011;44116;50.884;4.768;2024-01-15T05:46:30;21.4;;;10.8;;
58306;SDS011;44116;50.884;4.768;2024-01-15T05:48:30;22.4;;;11.0;;
58306;SDS011;44116;50.884;4.768;2024-01-15T05:50:29;20.8;;;10.9;;
58306;SDS011;44116;50.884;4.768;2024-01-15T05:52:29;19.9;;;10.6;;
58306;SDS011;44116;50.884;4.768;2024-01-15T05:54:29;20.0;;;10.8;;
58306;SDS011;44116;50.884;4.768;2024-01-15T05:56:28;20.9;;;10.4;;
58306;SDS011;44116;50.884;4.768;2024-01-15T05:58:28;20.6;;;10.0;;
58306;SDS011;44116;50.884;4.768;2024-01-15T06:00:27;18.7;;;10.4;;
58306;SDS011;44116;50.884;4.768;2024-01-15T06:02:26;18.7;;;9.5;;
58306;SDS011;44116;50.884;4.768;2024-01-15T06:04:26;18.1;;;9.7;;
58306;SDS011;44116;50.884;4.768;2024-01-15T06:06:26;17.9;;;9.1;;
58306;SDS011;44116;50.884;4.768;2024-01-15T06:08:25;19.3;;;8.7;;
58306;SDS011;44116;50.884;4.768;2024-01-15T06:10:24;15.7;;;8.5;;
58306;SDS011;44116;50.884;4.768;2024-01-15T06:12:24;15.7;;;8.4;;
58306;SDS011;44116;50.884;4.768;2024-01-15T06:14:23;15.5;;;7.7;;
58306;SDS011;44116;50.884;4.768;2024-01-15T06:16:24;13.7;;;6.6;;
58306;SDS011;44116;50.884;4.768;2024-01-15T06:18:22;13.4;;;7.3;;
58306;SDS011;44116;50.884;4.768;2024-01-15T06:20:22;13.7;;;6.7;;
58306;SDS011;44116;50.884;4.768;2024-01-15T06:22:21;16.3;;;6.3;;
58306;SDS011;44116;50.884;4.768;2024-01-15T06:24:21;14.4;;;6.9;;
58306;SDS011;44116;50.884;4.768;2024-01-15T06:26:21;15.2;;;6.1;;
58306;SDS011;44116;50.884;4.768;2024-01-15T06:28:20;12.3;;;5.7;;
58306;SDS011;44116;50.884;4.768;2024-01-15T06:30:20;12.8;;;5.3;;
58306;SDS011;44116;50.884;4.768;2024-01-15T06:32:19;13.5;;;6.0;;
58306;SDS011;44116;50.884;4.768;2024-01-15T06:34:19;12.9;;;5.6;;
58306;SDS011;44116;50.884;4.768;2024-01-15T06:36:18;11.5;;;5.2;;
58306;SDS011;44116;50.884;4.768;2024-01-15T06:38:17;10.3;;;4.5;;
58306;SDS011;44116;50.884;4.768;2024-01-15T06:40:17;10.5;;;4.7;;
58306;SDS011;44116;50.884;4.768;2024-01-15T06:42:16;10.5;;;4.8;;
58306;SDS011;44116;50.884;4.768;2024-01-15T06:44:16;9.4;;;4.9;;
58306;SDS011;44116;50.884;4.768;2024-01-15T06:46:19;10.4;;;4.8;;
58306;SDS011;44116;50.884;4.768;2024-01-15T06:48:15;9.7;;;4.3;;
58306;SDS011;44116;50.884;4.768;2024-01-15T06:52:14;9.7;;;4.2;;
58306;SDS011;44116;50.884;4.768;2024-01-15T06:54:13;10.1;;;4.6;;
58306;SDS011;44116;50.884;4.768;2024-01-15T06:58:12;8.8;;;3.9;;
58306;SDS011;44116;50.884;4.768;2024-01-15T07:00:12;7.1;;;3.7;;
58306;SDS011;44116;50.884;4.768;2024-01-15T07:02:11;9.1;;;3.6;;
58306;SDS011;44116;50.884;4.768;2024-01-15T07:04:11;9.7;;;4.0;;
58306;SDS011;44116;50.884;4.768;2024-01-15T07:06:10;8.9;;;3.4;;
58306;SDS011;44116;50.884;4.768;2024-01-15T07:08:10;7.7;;;3.5;;
58306;SDS011;44116;50.884;4.768;2024-01-15T07:10:09;11.3;;;3.6;;
58306;SDS011;44116;50.884;4.768;2024-01-15T07:12:09;7.6;;;3.2;;
58306;SDS011;44116;50.884;4.768;2024-01-15T07:14:08;7.5;;;3.3;;
58306;SDS011;44116;50.884;4.768;2024-01-15T07:16:08;7.9;;;3.4;;
58306;SDS011;44116;50.884;4.768;2024-01-15T07:18:07;6.7;;;3.0;;
58306;SDS011;44116;50.884;4.768;2024-01-15T07:22:06;7.9;;;2.8;;
58306;SDS011;44116;50.884;4.768;2024-01-15T07:26:05;10.2;;;2.9;;
58306;SDS011;44116;50.884;4.768;2024-01-15T07:28:05;8.5;;;3.1;;
58306;SDS011;44116;50.884;4.768;2024-01-15T07:30:05;7.1;;;2.9;;
58306;SDS011;44116;50.884;4.768;2024-01-15T07:32:04;10.4;;;3.2;;
58306;SDS011;44116;50.884;4.768;2024-01-15T07:34:03;9.7;;;3.0;;
58306;SDS011;44116;50.884;4.768;2024-01-15T07:36:03;9.2;;;3.3;;
58306;SDS011;44116;50.884;4.768;2024-01-15T07:38:02;10.0;;;3.2;;
58306;SDS011;44116;50.884;4.768;2024-01-15T07:40:02;7.3;;;3.0;;
58306;SDS011;44116;50.884;4.768;2024-01-15T07:42:01;9.0;;;3.3;;
58306;SDS011;44116;50.884;4.768;2024-01-15T07:44:01;6.5;;;2.9;;
58306;SDS011;44116;50.884;4.768;2024-01-15T07:46:00;7.3;;;3.1;;
58306;SDS011;44116;50.884;4.768;2024-01-15T07:47:59;6.8;;;3.0;;
58306;SDS011;44116;50.884;4.768;2024-01-15T07:49:59;9.5;;;3.6;;
58306;SDS011;44116;50.884;4.768;2024-01-15T07:53:58;10.2;;;3.7;;
58306;SDS011;44116;50.884;4.768;2024-01-15T07:55:57;9.3;;;4.1;;
58306;SDS011;44116;50.884;4.768;2024-01-15T07:57:57;10.3;;;4.0;;
58306;SDS011;44116;50.884;4.768;2024-01-15T07:59:57;9.0;;;3.8;;
58306;SDS011;44116;50.884;4.768;2024-01-15T08:01:58;9.0;;;4.3;;
58306;SDS011;44116;50.884;4.768;2024-01-15T08:03:55;9.4;;;4.0;;
58306;SDS011;44116;50.884;4.768;2024-01-15T08:07:54;11.5;;;4.5;;
58306;SDS011;44116;50.884;4.768;2024-01-15T08:11:53;13.7;;;4.3;;
58306;SDS011;44116;50.884;4.768;2024-01-15T08:13:53;10.4;;;4.0;;
58306;SDS011;44116;50.884;4.768;2024-01-15T08:15:53;9.7;;;4.2;;
58306;SDS011;44116;50.884;4.768;2024-01-15T08:17:52;12.2;;;4.1;;
58306;SDS011;44116;50.884;4.768;2024-01-15T08:19:52;10.7;;;4.6;;
58306;SDS011;44116;50.884;4.768;2024-01-15T08:21:51;8.3;;;4.2;;
58306;SDS011;44116;50.884;4.768;2024-01-15T08:23:50;11.6;;;4.1;;
58306;SDS011;44116;50.884;4.768;2024-01-15T08:25:50;11.6;;;4.2;;
58306;SDS011;44116;50.884;4.768;2024-01-15T08:27:50;11.2;;;4.0;;
58306;SDS011;44116;50.884;4.768;2024-01-15T08:29:49;9.4;;;4.6;;
58306;SDS011;44116;50.884;4.768;2024-01-15T08:31:48;9.1;;;4.4;;
58306;SDS011;44116;50.884;4.768;2024-01-15T08:33:48;12.4;;;4.6;;
58306;SDS011;44116;50.884;4.768;2024-01-15T08:35:48;12.6;;;4.8;;
58306;SDS011;44116;50.884;4.768;2024-01-15T08:37:47;10.2;;;4.6;;
58306;SDS011;44116;50.884;4.768;2024-01-15T08:41:46;12.7;;;5.3;;
58306;SDS011;44116;50.884;4.768;2024-01-15T08:43:46;9.2;;;4.4;;
58306;SDS011;44116;50.884;4.768;2024-01-15T08:45:45;12.8;;;5.1;;
58306;SDS011;44116;50.884;4.768;2024-01-15T08:47:45;11.0;;;4.8;;
58306;SDS011;44116;50.884;4.768;2024-01-15T08:49:44;9.7;;;4.5;;
58306;SDS011;44116;50.884;4.768;2024-01-15T08:53:43;12.3;;;4.6;;
58306;SDS011;44116;50.884;4.768;2024-01-15T08:55:44;7.4;;;3.8;;
58306;SDS011;44116;50.884;4.768;2024-01-15T08:57:42;9.2;;;3.5;;
58306;SDS011;44116;50.884;4.768;2024-01-15T09:01:41;14.3;;;3.7;;
58306;SDS011;44116;50.884;4.768;2024-01-15T09:03:41;11.6;;;3.4;;
58306;SDS011;44116;50.884;4.768;2024-01-15T09:05:40;8.5;;;3.2;;
58306;SDS011;44116;50.884;4.768;2024-01-15T09:07:40;10.8;;;3.4;;
58306;SDS011;44116;50.884;4.768;2024-01-15T09:09:39;12.3;;;2.9;;
58306;SDS011;44116;50.884;4.768;2024-01-15T09:11:39;11.2;;;2.7;;
58306;SDS011;44116;50.884;4.768;2024-01-15T09:13:38;11.9;;;3.6;;
58306;SDS011;44116;50.884;4.768;2024-01-15T09:15:38;11.5;;;2.8;;
58306;SDS011;44116;50.884;4.768;2024-01-15T09:19:37;8.4;;;2.3;;
58306;SDS011;44116;50.884;4.768;2024-01-15T09:21:38;8.5;;;2.8;;
58306;SDS011;44116;50.884;4.768;2024-01-15T09:23:36;9.8;;;3.1;;
58306;SDS011;44116;50.884;4.768;2024-01-15T09:25:35;10.0;;;2.9;;
58306;SDS011;44116;50.884;4.768;2024-01-15T09:27:35;8.7;;;2.5;;
58306;SDS011;44116;50.884;4.768;2024-01-15T09:29:34;8.1;;;2.7;;
58306;SDS011;44116;50.884;4.768;2024-01-15T09:31:34;11.1;;;3.0;;
58306;SDS011;44116;50.884;4.768;2024-01-15T09:33:33;12.5;;;3.3;;
58306;SDS011;44116;50.884;4.768;2024-01-15T09:35:33;11.8;;;2.9;;
58306;SDS011;44116;50.884;4.768;2024-01-15T09:37:32;9.5;;;3.1;;
58306;SDS011;44116;50.884;4.768;2024-01-15T09:39:32;8.2;;;2.8;;
58306;SDS011;44116;50.884;4.768;2024-01-15T09:41:31;11.8;;;2.7;;
58306;SDS011;44116;50.884;4.768;2024-01-15T09:45:31;10.6;;;2.8;;
58306;SDS011;44116;50.884;4.768;2024-01-15T09:47:30;6.7;;;2.7;;
58306;SDS011;44116;50.884;4.768;2024-01-15T09:49:29;8.9;;;2.5;;
58306;SDS011;44116;50.884;4.768;2024-01-15T09:51:31;12.6;;;3.2;;
58306;SDS011;44116;50.884;4.768;2024-01-15T09:53:29;12.4;;;3.0;;
58306;SDS011;44116;50.884;4.768;2024-01-15T09:55:28;11.4;;;2.6;;
58306;SDS011;44116;50.884;4.768;2024-01-15T09:57:27;16.5;;;2.9;;
58306;SDS011;44116;50.884;4.768;2024-01-15T09:59:27;10.8;;;2.5;;
58306;SDS011;44116;50.884;4.768;2024-01-15T10:01:27;13.1;;;2.4;;
58306;SDS011;44116;50.884;4.768;2024-01-15T10:03:26;13.2;;;2.5;;
58306;SDS011;44116;50.884;4.768;2024-01-15T10:05:26;8.4;;;2.6;;
58306;SDS011;44116;50.884;4.768;2024-01-15T10:07:25;13.2;;;3.2;;
58306;SDS011;44116;50.884;4.768;2024-01-15T10:09:25;11.8;;;2.9;;
58306;SDS011;44116;50.884;4.768;2024-01-15T10:11:24;12.0;;;2.5;;
58306;SDS011;44116;50.884;4.768;2024-01-15T10:13:24;11.3;;;3.4;;
58306;SDS011;44116;50.884;4.768;2024-01-15T10:15:23;10.9;;;2.6;;
58306;SDS011;44116;50.884;4.768;2024-01-15T10:17:24;12.7;;;2.9;;
58306;SDS011;44116;50.884;4.768;2024-01-15T10:19:22;14.1;;;2.8;;
58306;SDS011;44116;50.884;4.768;2024-01-15T10:21:22;7.2;;;2.3;;
58306;SDS011;44116;50.884;4.768;2024-01-15T10:27:20;9.0;;;2.4;;
58306;SDS011;44116;50.884;4.768;2024-01-15T10:29:20;11.6;;;2.5;;
58306;SDS011;44116;50.884;4.768;2024-01-15T10:35:21;11.4;;;2.4;;
58306;SDS011;44116;50.884;4.768;2024-01-15T10:39:17;10.1;;;2.6;;
58306;SDS011;44116;50.884;4.768;2024-01-15T10:45:17;11.4;;;2.5;;
58306;SDS011;44116;50.884;4.768;2024-01-15T10:49:15;11.1;;;3.0;;
58306;SDS011;44116;50.884;4.768;2024-01-15T10:51:15;13.4;;;2.2;;
58306;SDS011;44116;50.884;4.768;2024-01-15T10:53:15;8.4;;;2.4;;
58306;SDS011;44116;50.884;4.768;2024-01-15T10:55:14;9.9;;;2.6;;
58306;SDS011;44116;50.884;4.768;2024-01-15T10:57:15;12.1;;;2.4;;
58306;SDS011;44116;50.884;4.768;2024-01-15T10:59:13;9.3;;;2.3;;
58306;SDS011;44116;50.884;4.768;2024-01-15T11:05:11;9.3;;;2.4;;
58306;SDS011;44116;50.884;4.768;2024-01-15T11:07:13;12.8;;;2.7;;
58306;SDS011;44116;50.884;4.768;2024-01-15T11:09:11;9.6;;;2.2;;
58306;SDS011;44116;50.884;4.768;2024-01-15T11:11:11;11.0;;;2.3;;
58306;SDS011;44116;50.884;4.768;2024-01-15T11:13:13;10.1;;;2.6;;
58306;SDS011;44116;50.884;4.768;2024-01-15T11:15:09;7.8;;;2.1;;
58306;SDS011;44116;50.884;4.768;2024-01-15T11:19:08;11.0;;;2.8;;
58306;SDS011;44116;50.884;4.768;2024-01-15T11:21:20;9.7;;;2.3;;
58306;SDS011;44116;50.884;4.768;2024-01-15T11:23:07;10.2;;;2.5;;
58306;SDS011;44116;50.884;4.768;2024-01-15T11:25:13;8.3;;;2.3;;
58306;SDS011;44116;50.884;4.768;2024-01-15T11:27:08;8.5;;;2.1;;
58306;SDS011;44116;50.884;4.768;2024-01-15T11:29:07;10.7;;;2.3;;
58306;SDS011;44116;50.884;4.768;2024-01-15T11:31:05;9.1;;;2.6;;
58306;SDS011;44116;50.884;4.768;2024-01-15T11:33:05;12.2;;;2.8;;
58306;SDS011;44116;50.884;4.768;2024-01-15T11:37:04;8.9;;;2.1;;
58306;SDS011;44116;50.884;4.768;2024-01-15T11:43:03;7.9;;;2.1;;
58306;SDS011;44116;50.884;4.768;2024-01-15T11:45:03;12.9;;;2.3;;
58306;SDS011;44116;50.884;4.768;2024-01-15T11:47:04;8.9;;;2.9;;
58306;SDS011;44116;50.884;4.768;2024-01-15T11:49:03;9.2;;;2.5;;
58306;SDS011;44116;50.884;4.768;2024-01-15T11:51:01;11.1;;;2.4;;
58306;SDS011;44116;50.884;4.768;2024-01-15T11:55:02;8.2;;;2.1;;
58306;SDS011;44116;50.884;4.768;2024-01-15T11:57:04;9.2;;;2.2;;
58306;SDS011;44116;50.884;4.768;2024-01-15T11:58:59;8.0;;;2.0;;
58306;SDS011;44116;50.884;4.768;2024-01-15T12:00:59;11.4;;;2.6;;
58306;SDS011;44116;50.884;4.768;2024-01-15T12:02:59;7.0;;;2.3;;
58306;SDS011;44116;50.884;4.768;2024-01-15T12:04:58;7.7;;;2.2;;
58306;SDS011;44116;50.884;4.768;2024-01-15T12:09:05;11.4;;;2.1;;
58306;SDS011;44116;50.884;4.768;2024-01-15T12:14:56;7.2;;;1.9;;
58306;SDS011;44116;50.884;4.768;2024-01-15T12:18:55;9.7;;;2.3;;
58306;SDS011;44116;50.884;4.768;2024-01-15T12:22:54;8.0;;;1.9;;
58306;SDS011;44116;50.884;4.768;2024-01-15T12:24:53;9.2;;;2.2;;
58306;SDS011;44116;50.884;4.768;2024-01-15T12:28:54;6.9;;;1.8;;
58306;SDS011;44116;50.884;4.768;2024-01-15T12:30:52;9.2;;;2.1;;
58306;SDS011;44116;50.884;4.768;2024-01-15T12:32:52;7.6;;;1.9;;
58306;SDS011;44116;50.884;4.768;2024-01-15T12:34:51;8.2;;;2.0;;
58306;SDS011;44116;50.884;4.768;2024-01-15T12:36:51;13.3;;;2.2;;
58306;SDS011;44116;50.884;4.768;2024-01-15T12:40:50;6.5;;;2.0;;
58306;SDS011;44116;50.884;4.768;2024-01-15T12:42:50;9.3;;;1.9;;
58306;SDS011;44116;50.884;4.768;2024-01-15T12:44:49;9.0;;;2.2;;
58306;SDS011;44116;50.884;4.768;2024-01-15T12:46:49;8.4;;;1.9;;
58306;SDS011;44116;50.884;4.768;2024-01-15T12:48:48;8.5;;;2.0;;
58306;SDS011;44116;50.884;4.768;2024-01-15T12:50:48;9.9;;;2.5;;
58306;SDS011;44116;50.884;4.768;2024-01-15T12:52:47;5.9;;;2.0;;
58306;SDS011;44116;50.884;4.768;2024-01-15T12:54:49;8.3;;;2.3;;
58306;SDS011;44116;50.884;4.768;2024-01-15T12:56:47;8.2;;;2.0;;
58306;SDS011;44116;50.884;4.768;2024-01-15T12:58:46;9.4;;;2.1;;
58306;SDS011;44116;50.884;4.768;2024-01-15T13:00:46;11.4;;;2.4;;
58306;SDS011;44116;50.884;4.768;2024-01-15T13:02:45;18.7;;;3.1;;
58306;SDS011;44116;50.884;4.768;2024-01-15T13:04:45;8.6;;;2.6;;
58306;SDS011;44116;50.884;4.768;2024-01-15T13:06:44;6.6;;;2.0;;
58306;SDS011;44116;50.884;4.768;2024-01-15T13:08:44;7.7;;;2.6;;
58306;SDS011;44116;50.884;4.768;2024-01-15T13:10:44;11.3;;;2.5;;
58306;SDS011;44116;50.884;4.768;2024-01-15T13:12:43;10.2;;;2.8;;
58306;SDS011;44116;50.884;4.768;2024-01-15T13:14:43;9.8;;;3.1;;
58306;SDS011;44116;50.884;4.768;2024-01-15T13:16:42;10.1;;;2.6;;
58306;SDS011;44116;50.884;4.768;2024-01-15T13:18:42;8.5;;;3.0;;
58306;SDS011;44116;50.884;4.768;2024-01-15T13:20:42;16.0;;;3.2;;
58306;SDS011;44116;50.884;4.768;2024-01-15T13:22:41;5.8;;;1.8;;
58306;SDS011;44116;50.884;4.768;2024-01-15T13:26:40;5.4;;;1.5;;
58306;SDS011;44116;50.884;4.768;2024-01-15T13:28:39;6.8;;;2.1;;
58306;SDS011;44116;50.884;4.768;2024-01-15T13:30:39;7.6;;;2.2;;
58306;SDS011;44116;50.884;4.768;2024-01-15T13:32:38;5.5;;;1.9;;
58306;SDS011;44116;50.884;4.768;2024-01-15T13:34:38;5.5;;;2.5;;
58306;SDS011;44116;50.884;4.768;2024-01-15T13:36:37;6.0;;;2.0;;
58306;SDS011;44116;50.884;4.768;2024-01-15T13:38:37;6.8;;;2.3;;
58306;SDS011;44116;50.884;4.768;2024-01-15T13:40:37;7.1;;;3.1;;
58306;SDS011;44116;50.884;4.768;2024-01-15T13:42:36;7.5;;;2.5;;